createdAt,value
2023-05-18T00:00:01.979Z,1.40
2023-05-18T00:02:51.534Z,1.10
2023-05-18T00:05:18.239Z,1.50
2023-05-18T00:07:46.234Z,1.30
2023-05-18T00:10:12.709Z,1.30
2023-05-18T00:12:39.255Z,1.20
2023-05-18T00:15:06.147Z,1.20
2023-05-18T00:17:32.559Z,1.30
2023-05-18T00:20:00.355Z,1.30
2023-05-18T00:22:26.803Z,1.00
2023-05-18T00:24:53.212Z,1.50
2023-05-18T00:27:19.756Z,1.10
2023-05-18T00:29:46.253Z,1.40
2023-05-18T00:32:12.662Z,1.90
2023-05-18T00:34:39.235Z,1.90
2023-05-18T00:37:05.767Z,1.20
2023-05-18T00:39:32.113Z,1.50
2023-05-18T00:41:58.608Z,1.50
2023-05-18T00:44:26.122Z,1.40
2023-05-18T00:46:53.697Z,1.10
2023-05-18T00:49:20.570Z,1.20
2023-05-18T00:51:47.458Z,1.20
2023-05-18T00:54:15.880Z,0.90
2023-05-18T00:56:45.530Z,1.00
2023-05-18T01:01:43.069Z,1.10
2023-05-18T01:04:09.816Z,0.90
2023-05-18T01:06:36.666Z,1.30
2023-05-18T01:09:06.107Z,1.00
2023-05-18T01:11:32.613Z,1.60
2023-05-18T01:14:39.395Z,1.10
2023-05-18T01:17:21.146Z,0.90
2023-05-18T01:22:33.289Z,1.00
2023-05-18T01:25:16.794Z,1.40
2023-05-18T01:27:45.775Z,1.20
2023-05-18T01:32:46.391Z,1.20
2023-05-18T01:35:13.004Z,1.20
2023-05-18T01:37:39.854Z,1.10
2023-05-18T01:40:08.567Z,1.10
2023-05-18T01:42:44.041Z,1.20
2023-05-18T01:45:21.015Z,1.20
2023-05-18T01:47:48.715Z,1.30
2023-05-18T01:50:25.177Z,1.40
2023-05-18T01:52:57.766Z,1.00
2023-05-18T01:55:29.123Z,1.40
2023-05-18T01:57:59.841Z,1.10
2023-05-18T02:00:26.736Z,0.80
2023-05-18T02:02:53.173Z,1.30
2023-05-18T02:05:19.741Z,1.20
2023-05-18T02:07:47.147Z,1.40
2023-05-18T02:10:14.136Z,1.50
2023-05-18T02:12:41.065Z,1.50
2023-05-18T02:15:09.530Z,1.70
2023-05-18T02:17:39.334Z,2.70
2023-05-18T02:20:07.318Z,1.20
2023-05-18T02:22:34.856Z,1.50
2023-05-18T02:25:02.664Z,1.30
2023-05-18T02:27:29.302Z,1.30
2023-05-18T02:29:56.083Z,0.90
2023-05-18T02:32:23.479Z,1.50
2023-05-18T02:34:53.072Z,0.90
2023-05-18T02:37:22.349Z,1.10
2023-05-18T02:39:49.372Z,1.40
2023-05-18T02:42:15.784Z,0.80
2023-05-18T02:44:44.710Z,1.40
2023-05-18T02:47:13.470Z,1.10
2023-05-18T02:49:40.971Z,1.10
2023-05-18T02:52:07.452Z,1.30
2023-05-18T02:54:34.062Z,1.20
2023-05-18T02:57:01.077Z,1.00
2023-05-18T02:59:35.651Z,0.90
2023-05-18T03:02:02.518Z,1.40
2023-05-18T03:04:28.977Z,1.20
2023-05-18T03:06:56.579Z,1.40
2023-05-18T03:09:23.362Z,1.60
2023-05-18T03:11:51.108Z,1.40
2023-05-18T03:14:17.429Z,1.50
2023-05-18T03:16:44.597Z,1.10
2023-05-18T03:19:15.309Z,1.00
2023-05-18T03:21:41.970Z,1.60
2023-05-18T03:24:08.432Z,1.20
2023-05-18T03:26:39.171Z,1.00
2023-05-18T03:29:05.785Z,1.20
2023-05-18T03:31:32.701Z,1.00
2023-05-18T03:33:59.544Z,1.10
2023-05-18T03:36:27.427Z,1.20
2023-05-18T03:38:54.050Z,1.00
2023-05-18T03:41:21.455Z,0.90
2023-05-18T03:43:47.860Z,1.10
2023-05-18T03:46:14.296Z,1.10
2023-05-18T03:48:40.626Z,1.40
2023-05-18T03:51:07.296Z,1.50
2023-05-18T03:53:35.526Z,1.20
2023-05-18T03:56:01.992Z,1.80
2023-05-18T03:58:29.347Z,2.00
2023-05-18T04:01:01.275Z,1.40
2023-05-18T04:03:27.886Z,1.30
2023-05-18T04:05:55.181Z,1.20
2023-05-18T04:08:24.760Z,1.50
2023-05-18T04:10:51.983Z,1.20
2023-05-18T04:13:18.458Z,1.20
2023-05-18T04:15:45.225Z,1.60
2023-05-18T04:18:13.093Z,1.30
2023-05-18T04:23:09.498Z,1.40
2023-05-18T04:25:35.878Z,1.40
2023-05-18T04:28:02.484Z,1.70
2023-05-18T04:30:30.392Z,1.60
2023-05-18T04:32:59.836Z,1.60
2023-05-18T04:35:27.221Z,1.70
2023-05-18T04:37:54.005Z,1.80
2023-05-18T04:40:20.376Z,1.50
2023-05-18T04:42:49.109Z,1.80
2023-05-18T04:45:25.345Z,1.30
2023-05-18T04:47:54.792Z,1.70
2023-05-18T04:50:23.081Z,1.20
2023-05-18T04:52:50.823Z,1.90
2023-05-18T04:55:27.307Z,1.60
2023-05-18T04:58:04.218Z,1.00
2023-05-18T05:00:30.809Z,1.40
2023-05-18T05:02:58.584Z,1.60
2023-05-18T05:05:26.224Z,1.50
2023-05-18T05:07:53.574Z,1.20
2023-05-18T05:10:21.508Z,2.00
2023-05-18T05:12:50.784Z,1.50
2023-05-18T05:15:18.406Z,1.50
2023-05-18T05:17:48.165Z,1.00
2023-05-18T05:20:15.613Z,1.00
2023-05-18T05:22:42.387Z,1.80
2023-05-18T05:25:10.806Z,1.30
2023-05-18T05:27:38.261Z,1.60
2023-05-18T05:30:05.438Z,1.70
2023-05-18T05:32:35.316Z,1.20
2023-05-18T05:35:02.817Z,1.30
2023-05-18T05:37:29.317Z,1.20
2023-05-18T05:39:56.237Z,1.50
2023-05-18T05:42:24.777Z,1.10
2023-05-18T05:44:51.187Z,1.60
2023-05-18T05:47:18.949Z,1.20
2023-05-18T05:49:45.607Z,1.30
2023-05-18T05:52:12.100Z,1.50
2023-05-18T05:54:40.436Z,1.40
2023-05-18T05:57:07.056Z,1.60
2023-05-18T05:59:33.624Z,1.70
2023-05-18T06:02:00.491Z,1.30
2023-05-18T06:04:27.409Z,1.30
2023-05-18T06:06:54.766Z,1.00
2023-05-18T06:09:21.483Z,1.00
2023-05-18T06:11:52.260Z,1.10
2023-05-18T06:14:19.104Z,1.30
2023-05-18T06:16:45.639Z,0.90
2023-05-18T06:19:12.257Z,0.90
2023-05-18T06:21:39.125Z,1.30
2023-05-18T06:24:06.294Z,1.00
2023-05-18T06:27:01.833Z,1.30
2023-05-18T06:29:37.650Z,1.50
2023-05-18T06:32:32.579Z,1.30
2023-05-18T06:35:00.282Z,1.40
2023-05-18T06:37:26.686Z,1.40
2023-05-18T06:39:53.197Z,1.40
2023-05-18T06:42:19.811Z,0.80
2023-05-18T06:44:53.517Z,1.30
2023-05-18T06:47:28.765Z,1.00
2023-05-18T06:49:55.387Z,1.00
2023-05-18T06:52:23.188Z,1.30
2023-05-18T06:54:50.770Z,1.10
2023-05-18T06:57:17.625Z,1.00
2023-05-18T06:59:44.148Z,1.60
2023-05-18T07:02:10.501Z,0.90
2023-05-18T07:04:37.070Z,0.80
2023-05-18T07:07:03.570Z,1.20
2023-05-18T07:09:30.105Z,1.10
2023-05-18T07:11:56.510Z,0.90
2023-05-18T07:14:23.381Z,1.00
2023-05-18T07:16:49.758Z,1.30
2023-05-18T07:19:16.130Z,1.00
2023-05-18T07:21:42.538Z,0.70
2023-05-18T07:24:09.205Z,1.10
2023-05-18T07:26:35.596Z,1.00
2023-05-18T07:29:02.161Z,0.80
2023-05-18T07:31:28.548Z,0.80
2023-05-18T07:33:55.045Z,0.60
2023-05-18T07:36:21.583Z,0.80
2023-05-18T07:38:53.410Z,0.80
2023-05-18T07:41:22.049Z,0.80
2023-05-18T07:43:50.519Z,0.90
2023-05-18T07:46:17.761Z,0.70
2023-05-18T07:48:44.831Z,0.90
2023-05-18T07:51:11.787Z,0.80
2023-05-18T07:53:38.856Z,1.00
2023-05-18T07:56:06.942Z,0.70
2023-05-18T07:58:34.966Z,0.60
2023-05-18T08:01:01.444Z,0.70
2023-05-18T08:03:27.831Z,1.20
2023-05-18T08:05:54.409Z,0.90
2023-05-18T08:08:21.163Z,1.00
2023-05-18T08:10:47.591Z,0.70
2023-05-18T08:13:14.342Z,0.80
2023-05-18T08:15:40.693Z,0.80
2023-05-18T08:18:07.130Z,0.60
2023-05-18T08:20:33.776Z,0.80
2023-05-18T08:23:00.175Z,0.80
2023-05-18T08:25:26.543Z,0.60
2023-05-18T08:27:53.108Z,0.70
2023-05-18T08:30:21.101Z,0.80
2023-05-18T08:32:48.249Z,0.70
2023-05-18T08:35:14.705Z,0.60
2023-05-18T08:37:41.111Z,0.60
2023-05-18T08:40:10.882Z,0.50
2023-05-18T08:42:58.423Z,0.80
2023-05-18T08:45:38.558Z,0.80
2023-05-18T08:48:05.669Z,0.90
2023-05-18T08:50:32.525Z,2.90
2023-05-18T08:53:05.267Z,0.60
2023-05-18T08:55:36.392Z,0.60
2023-05-18T08:58:06.602Z,0.60
2023-05-18T09:00:33.493Z,1.10
2023-05-18T09:03:00.564Z,0.60
2023-05-18T09:05:27.268Z,0.90
2023-05-18T09:07:54.289Z,0.60
2023-05-18T09:10:22.080Z,0.60
2023-05-18T09:12:50.085Z,0.90
2023-05-18T09:15:21.311Z,0.80
2023-05-18T09:17:47.689Z,0.60
2023-05-18T09:20:15.870Z,0.80
2023-05-18T09:22:42.359Z,0.70
2023-05-18T09:25:09.972Z,1.40
2023-05-18T09:27:37.590Z,0.90
2023-05-18T09:30:04.567Z,0.90
2023-05-18T09:32:35.591Z,0.70
2023-05-18T09:35:06.060Z,0.60
2023-05-18T09:37:33.261Z,0.60
2023-05-18T09:40:01.563Z,0.70
2023-05-18T09:42:39.333Z,0.70
2023-05-18T09:45:26.119Z,0.60
2023-05-18T09:47:52.791Z,0.90
2023-05-18T09:50:23.340Z,0.90
2023-05-18T09:52:50.426Z,1.00
2023-05-18T09:55:19.075Z,0.70
2023-05-18T09:57:47.557Z,0.80
2023-05-18T10:00:16.318Z,0.90
2023-05-18T10:02:48.241Z,0.60
2023-05-18T10:05:33.210Z,0.80
2023-05-18T10:08:01.308Z,0.60
2023-05-18T10:10:28.947Z,0.80
2023-05-18T10:12:57.743Z,0.60
2023-05-18T10:15:24.842Z,0.90
2023-05-18T10:17:55.757Z,0.80
2023-05-18T10:20:23.768Z,0.40
2023-05-18T10:22:50.256Z,0.70
2023-05-18T10:25:24.898Z,0.80
2023-05-18T10:27:56.251Z,0.90
2023-05-18T10:30:22.972Z,1.30
2023-05-18T10:32:51.778Z,1.00
2023-05-18T10:35:18.888Z,0.70
2023-05-18T10:37:47.305Z,0.90
2023-05-18T10:40:17.028Z,0.60
2023-05-18T10:42:45.586Z,0.80
2023-05-18T10:45:12.236Z,0.90
2023-05-18T10:47:41.958Z,0.90
2023-05-18T10:50:09.369Z,0.90
2023-05-18T10:52:40.714Z,1.00
2023-05-18T10:55:08.846Z,0.50
2023-05-18T10:57:42.866Z,0.70
2023-05-18T11:00:09.987Z,0.60
2023-05-18T11:02:41.716Z,0.70
2023-05-18T11:05:10.260Z,0.70
2023-05-18T11:07:37.879Z,0.70
2023-05-18T11:10:09.438Z,0.80
2023-05-18T11:12:37.806Z,0.70
2023-05-18T11:15:05.329Z,0.50
2023-05-18T11:17:31.894Z,0.80
2023-05-18T11:20:07.453Z,0.80
2023-05-18T11:22:46.012Z,0.70
2023-05-18T11:25:27.690Z,1.00
2023-05-18T11:28:05.878Z,0.70
2023-05-18T11:30:32.302Z,1.00
2023-05-18T11:33:11.134Z,0.60
2023-05-18T11:36:12.922Z,0.50
2023-05-18T11:38:53.574Z,0.70
2023-05-18T11:41:46.959Z,0.70
2023-05-18T11:44:24.257Z,1.00
2023-05-18T11:46:53.588Z,0.90
2023-05-18T11:52:24.310Z,0.60
2023-05-18T11:55:00.634Z,0.90
2023-05-18T11:57:35.776Z,0.90
2023-05-18T12:00:12.788Z,0.60
2023-05-18T12:02:43.137Z,0.70
2023-05-18T12:05:10.530Z,0.30
2023-05-18T12:07:38.458Z,0.90
2023-05-18T12:10:11.202Z,0.70
2023-05-18T12:12:38.898Z,0.60
2023-05-18T12:15:07.253Z,0.90
2023-05-18T12:17:43.824Z,0.70
2023-05-18T12:20:14.873Z,0.70
2023-05-18T12:22:43.825Z,0.70
2023-05-18T12:25:10.994Z,0.70
2023-05-18T12:27:43.111Z,0.70
2023-05-18T12:30:13.377Z,0.60
2023-05-18T12:32:47.964Z,0.70
2023-05-18T12:35:14.506Z,0.60
2023-05-18T12:37:45.968Z,0.40
2023-05-18T12:40:15.242Z,0.80
2023-05-18T12:43:03.579Z,0.80
2023-05-18T12:45:32.449Z,0.40
2023-05-18T12:48:06.251Z,0.60
2023-05-18T12:50:34.137Z,0.50
2023-05-18T12:53:03.358Z,0.80
2023-05-18T12:58:17.229Z,0.40
2023-05-18T13:00:47.774Z,0.40
2023-05-18T13:03:20.878Z,0.30
2023-05-18T13:06:03.042Z,0.60
2023-05-18T13:08:31.499Z,0.50
2023-05-18T13:11:12.845Z,0.60
2023-05-18T13:14:04.033Z,0.80
2023-05-18T13:16:32.287Z,0.50
2023-05-18T13:19:01.920Z,0.60
2023-05-18T13:21:28.824Z,0.60
2023-05-18T13:23:56.718Z,0.40
2023-05-18T13:26:24.704Z,0.80
2023-05-18T13:28:54.059Z,0.70
2023-05-18T13:31:21.609Z,1.90
2023-05-18T13:33:49.660Z,2.20
2023-05-18T13:36:16.895Z,1.10
2023-05-18T13:38:43.480Z,0.60
2023-05-18T13:41:14.393Z,0.90
2023-05-18T13:43:42.006Z,0.70
2023-05-18T13:46:08.414Z,0.90
2023-05-18T13:48:34.857Z,0.60
2023-05-18T13:51:01.476Z,1.60
2023-05-18T13:53:27.943Z,1.70
2023-05-18T13:55:54.307Z,0.80
2023-05-18T13:58:20.644Z,0.90
2023-05-18T14:00:47.127Z,0.60
2023-05-18T14:03:14.462Z,0.80
2023-05-18T14:05:41.178Z,2.90
2023-05-18T14:08:07.734Z,1.30
2023-05-18T14:10:34.282Z,2.10
2023-05-18T14:13:00.736Z,0.80
2023-05-18T14:15:27.114Z,0.70
2023-05-18T14:17:53.577Z,0.90
2023-05-18T14:20:20.252Z,0.60
2023-05-18T14:22:46.698Z,0.70
2023-05-18T14:25:13.119Z,0.70
2023-05-18T14:27:39.475Z,0.80
2023-05-18T14:30:06.656Z,0.90
2023-05-18T14:32:33.151Z,0.70
2023-05-18T14:34:59.594Z,0.70
2023-05-18T14:37:26.125Z,0.70
2023-05-18T14:39:52.780Z,0.60
2023-05-18T14:42:19.422Z,0.70
2023-05-18T14:44:46.820Z,0.80
2023-05-18T14:47:13.322Z,0.70
2023-05-18T14:49:39.725Z,1.10
2023-05-18T14:52:06.245Z,0.70
2023-05-18T14:54:32.667Z,0.80
2023-05-18T14:56:59.134Z,0.60
2023-05-18T14:59:25.479Z,0.70
2023-05-18T15:01:51.984Z,0.70
2023-05-18T15:04:21.053Z,0.80
2023-05-18T15:06:48.662Z,0.70
2023-05-18T15:09:15.355Z,0.70
2023-05-18T15:11:41.878Z,0.70
2023-05-18T15:14:08.292Z,0.80
2023-05-18T15:16:35.270Z,0.80
2023-05-18T15:19:01.970Z,1.00
2023-05-18T15:21:28.825Z,1.10
2023-05-18T15:23:55.426Z,1.30
2023-05-18T15:26:21.823Z,0.90
2023-05-18T15:28:48.695Z,1.10
2023-05-18T15:31:15.913Z,1.10
2023-05-18T15:33:43.136Z,0.90
2023-05-18T15:36:10.088Z,0.90
2023-05-18T15:38:36.491Z,1.00
2023-05-18T15:41:03.253Z,0.70
2023-05-18T15:43:30.378Z,0.90
2023-05-18T15:45:57.524Z,0.60
2023-05-18T15:48:23.948Z,0.70
2023-05-18T15:50:50.307Z,0.70
2023-05-18T15:53:16.687Z,1.40
2023-05-18T15:55:43.027Z,1.70
2023-05-18T15:58:09.454Z,0.70
2023-05-18T16:00:35.820Z,1.50
2023-05-18T16:03:02.297Z,1.10
2023-05-18T16:05:29.114Z,0.90
2023-05-18T16:07:55.776Z,0.70
2023-05-18T16:10:22.887Z,0.70
2023-05-18T16:12:49.205Z,0.80
2023-05-18T16:15:15.687Z,0.80
2023-05-18T16:17:42.118Z,1.00
2023-05-18T16:20:09.049Z,1.40
2023-05-18T16:22:35.530Z,1.30
2023-05-18T16:25:01.893Z,1.40
2023-05-18T16:27:28.243Z,1.40
2023-05-18T16:29:54.685Z,1.50
2023-05-18T16:32:21.210Z,1.90
2023-05-18T16:34:47.624Z,1.70
2023-05-18T16:37:13.965Z,3.40
2023-05-18T16:39:40.518Z,2.00
2023-05-18T16:42:07.013Z,1.80
2023-05-18T16:44:34.057Z,1.70
2023-05-18T16:47:00.312Z,1.40
2023-05-18T16:49:26.690Z,1.00
2023-05-18T16:51:53.211Z,1.10
2023-05-18T16:54:19.657Z,1.20
2023-05-18T16:56:46.255Z,1.10
2023-05-18T16:59:12.665Z,1.30
2023-05-18T17:01:38.955Z,1.00
2023-05-18T17:04:05.495Z,0.70
2023-05-18T17:06:31.910Z,0.90
2023-05-18T17:08:58.659Z,1.00
2023-05-18T17:11:27.009Z,1.00
2023-05-18T17:13:53.730Z,0.80
2023-05-18T17:16:21.332Z,0.70
2023-05-18T17:18:48.254Z,1.00
2023-05-18T17:21:15.348Z,0.80
2023-05-18T17:23:41.625Z,0.80
2023-05-18T17:26:08.026Z,0.80
2023-05-18T17:28:34.361Z,0.90
2023-05-18T17:31:00.807Z,1.00
2023-05-18T17:33:27.096Z,1.10
2023-05-18T17:35:53.421Z,1.70
2023-05-18T17:38:21.810Z,0.80
2023-05-18T17:40:48.065Z,1.10
2023-05-18T17:43:14.413Z,1.40
2023-05-18T17:45:40.793Z,1.20
2023-05-18T17:48:07.176Z,1.70
2023-05-18T17:50:36.919Z,1.10
2023-05-18T17:53:04.192Z,1.30
2023-05-18T17:55:30.652Z,1.90
2023-05-18T17:57:58.919Z,1.80
2023-05-18T18:00:25.369Z,1.70
2023-05-18T18:02:51.745Z,2.00
2023-05-18T18:05:18.129Z,2.10
2023-05-18T18:07:44.467Z,2.30
2023-05-18T18:10:11.143Z,1.90
2023-05-18T18:12:37.423Z,1.00
2023-05-18T18:15:03.991Z,0.90
2023-05-18T18:17:30.660Z,2.20
2023-05-18T18:19:57.782Z,3.10
2023-05-18T18:22:24.097Z,3.50
2023-05-18T18:24:50.362Z,4.20
2023-05-18T18:27:18.692Z,4.10
2023-05-18T18:29:45.600Z,4.00
2023-05-18T18:32:11.941Z,3.10
2023-05-18T18:34:38.331Z,2.80
2023-05-18T18:37:04.978Z,2.80
2023-05-18T18:39:31.438Z,2.90
2023-05-18T18:41:57.784Z,2.70
2023-05-18T18:44:24.080Z,3.60
2023-05-18T18:46:50.509Z,2.60
2023-05-18T18:49:16.954Z,3.60
2023-05-18T18:51:43.624Z,3.20
2023-05-18T18:54:10.260Z,3.10
2023-05-18T18:56:36.587Z,3.20
2023-05-18T18:59:02.943Z,2.80
2023-05-18T19:01:29.292Z,2.80
2023-05-18T19:03:55.677Z,2.50
2023-05-18T19:06:22.624Z,2.20
2023-05-18T19:08:51.513Z,1.90
2023-05-18T19:11:17.951Z,2.90
2023-05-18T19:13:44.203Z,1.90
2023-05-18T19:16:10.656Z,2.10
2023-05-18T19:18:37.109Z,1.80
2023-05-18T19:21:03.517Z,1.80
2023-05-18T19:23:29.788Z,2.20
2023-05-18T19:25:56.190Z,2.70
2023-05-18T19:28:22.716Z,2.80
2023-05-18T19:30:48.999Z,2.80
2023-05-18T19:33:15.498Z,3.70
2023-05-18T19:35:41.971Z,3.20
2023-05-18T19:38:08.428Z,3.40
2023-05-18T19:40:35.192Z,3.20
2023-05-18T19:43:02.526Z,2.90
2023-05-18T19:45:29.118Z,3.40
2023-05-18T19:47:57.176Z,3.00
2023-05-18T19:50:23.565Z,3.40
2023-05-18T19:52:50.102Z,3.00
2023-05-18T19:55:17.123Z,2.60
2023-05-18T19:57:43.428Z,3.10
2023-05-18T20:00:13.098Z,3.50
2023-05-18T20:02:39.586Z,2.70
2023-05-18T20:05:06.896Z,3.20
2023-05-18T20:07:33.440Z,2.40
2023-05-18T20:09:59.871Z,2.70
2023-05-18T20:12:27.635Z,2.70
2023-05-18T20:14:54.508Z,2.20
2023-05-18T20:17:20.952Z,2.60
2023-05-18T20:19:49.881Z,2.30
2023-05-18T20:22:17.206Z,2.60
2023-05-18T20:24:44.054Z,1.90
2023-05-18T20:27:14.457Z,2.50
2023-05-18T20:29:40.894Z,2.40
2023-05-18T20:32:07.345Z,2.50
2023-05-18T20:34:34.368Z,2.70
2023-05-18T20:37:01.921Z,2.90
2023-05-18T20:39:28.340Z,3.70
2023-05-18T20:41:54.661Z,3.50
2023-05-18T20:44:22.785Z,3.70
2023-05-18T20:46:52.197Z,4.60
2023-05-18T20:51:48.567Z,3.70
2023-05-18T20:54:17.156Z,4.20
2023-05-18T20:56:43.782Z,4.40
2023-05-18T20:59:11.983Z,4.20
2023-05-18T21:01:38.787Z,4.30
2023-05-18T21:04:05.684Z,4.50
2023-05-18T21:06:32.205Z,5.00
2023-05-18T21:08:58.640Z,5.20
2023-05-18T21:11:25.515Z,4.40
2023-05-18T21:13:51.989Z,5.00
2023-05-18T21:16:18.602Z,4.20
2023-05-18T21:18:45.053Z,4.00
2023-05-18T21:21:11.346Z,4.50
2023-05-18T21:23:37.828Z,4.40
2023-05-18T21:26:04.273Z,4.30
2023-05-18T21:28:31.102Z,4.50
2023-05-18T21:30:57.553Z,5.20
2023-05-18T21:33:24.117Z,4.80
2023-05-18T21:35:50.672Z,4.90
2023-05-18T21:38:17.057Z,4.50
2023-05-18T21:40:43.936Z,5.20
2023-05-18T21:43:10.991Z,5.10
2023-05-18T21:45:38.196Z,5.40
2023-05-18T21:48:05.000Z,5.00
2023-05-18T21:50:33.764Z,4.80
2023-05-18T21:53:02.153Z,4.60
2023-05-18T21:55:29.735Z,4.00
2023-05-18T21:57:56.073Z,5.10
2023-05-18T22:00:22.428Z,4.70
2023-05-18T22:02:48.732Z,4.70
2023-05-18T22:05:15.484Z,4.90
2023-05-18T22:07:42.109Z,3.70
2023-05-18T22:10:08.690Z,4.90
2023-05-18T22:12:37.091Z,4.70
2023-05-18T22:15:04.134Z,4.50
2023-05-18T22:17:30.498Z,4.60
2023-05-18T22:19:57.518Z,3.90
2023-05-18T22:24:55.422Z,4.10
2023-05-18T22:27:21.740Z,3.90
2023-05-18T22:29:48.004Z,3.70
2023-05-18T22:32:16.324Z,4.00
2023-05-18T22:34:42.714Z,3.60
2023-05-18T22:37:08.987Z,2.90
2023-05-18T22:39:35.298Z,3.50
2023-05-18T22:42:01.589Z,2.90
2023-05-18T22:44:27.960Z,2.90
2023-05-18T22:46:54.474Z,2.50
2023-05-18T22:49:21.479Z,2.40
2023-05-18T22:51:47.804Z,2.00
2023-05-18T22:54:14.276Z,2.40
2023-05-18T22:56:40.624Z,2.20
2023-05-18T22:59:09.552Z,1.80
2023-05-18T23:01:36.961Z,2.10
2023-05-18T23:04:03.354Z,2.00
2023-05-18T23:06:31.019Z,1.60
2023-05-18T23:08:59.781Z,1.90
2023-05-18T23:11:27.663Z,2.20
2023-05-18T23:13:54.020Z,1.80
2023-05-18T23:16:20.696Z,2.00
2023-05-18T23:18:48.090Z,1.70
2023-05-18T23:21:14.361Z,1.90
2023-05-18T23:23:40.857Z,1.70
2023-05-18T23:26:08.441Z,2.20
2023-05-18T23:28:35.023Z,2.00
2023-05-18T23:31:01.304Z,1.90
2023-05-18T23:33:28.107Z,2.00
2023-05-18T23:35:59.173Z,1.90
2023-05-18T23:38:33.979Z,1.90
2023-05-18T23:41:03.021Z,1.70
2023-05-18T23:43:29.716Z,1.50
2023-05-18T23:45:58.851Z,1.70
2023-05-18T23:48:31.647Z,1.70
2023-05-18T23:51:01.052Z,1.80
2023-05-18T23:53:31.846Z,2.20
2023-05-18T23:55:59.460Z,1.80
2023-05-18T23:58:31.354Z,1.60
